Time;durP1;ratioP1;P1;durP2;ratioP2;P2;SDS_P1;SDS_P2;PMS_P1;PMS_P2;Temp;Humidity;BMP_temperature;BMP_pressure;BME280_temperature;BME280_humidity;BME280_pressure;Samples;Min_cycle;Max_cycle;Signal;HPM_P1;HPM_P2
2023/10/08 00:01:18;;;;;;;;;;;16.50;51.90;;;;;;5019131;28;84666;-51
2023/10/08 00:03:50;;;;;;;;;;;16.60;51.90;;;;;;5018893;28;82149;-52
2023/10/08 00:06:19;;;;;;;;;;;16.50;51.90;;;;;;5017307;28;84115;-48
2023/10/08 00:08:45;;;;;;;;;;;16.50;52.00;;;;;;5018268;28;81966;-52
2023/10/08 00:11:11;;;;;;;;;;;16.50;52.00;;;;;;5017459;28;81978;-52
2023/10/08 00:13:39;;;;;;;;;;;16.50;51.90;;;;;;5018294;28;85866;-49
2023/10/08 00:16:15;;;;;;;;;;;16.40;51.90;;;;;;5012645;28;82596;-53
2023/10/08 00:18:48;;;;;;;;;;;16.50;52.00;;;;;;5017503;28;84080;-47
2023/10/08 00:23:43;;;;;;;;;;;16.40;51.90;;;;;;5016556;28;82049;-51
2023/10/08 00:26:09;;;;;;;;;;;16.40;51.90;;;;;;5020722;28;84239;-49
2023/10/08 00:28:35;;;;;;;;;;;16.40;52.00;;;;;;5018124;28;81823;-48
2023/10/08 00:31:12;;;;;;;;;;;16.40;51.90;;;;;;5017499;28;81537;-49
2023/10/08 00:33:38;;;;;;;;;;;16.40;51.90;;;;;;5013074;28;84542;-53
2023/10/08 00:36:17;;;;;;;;;;;16.40;52.00;;;;;;5015758;28;82169;-53
2023/10/08 00:38:44;;;;;;;;;;;16.30;51.90;;;;;;5015293;28;83824;-53
2023/10/08 00:41:16;;;;;;;;;;;16.30;51.90;;;;;;5018527;28;84526;-49
2023/10/08 00:43:42;;;;;;;;;;;16.30;51.90;;;;;;5017628;28;82085;-54
2023/10/08 00:46:24;;;;;;;;;;;16.30;52.00;;;;;;5016735;28;84386;-48
2023/10/08 00:48:54;;;;;;;;;;;16.30;52.00;;;;;;5017162;28;82389;-50
2023/10/08 00:54:05;;;;;;;;;;;16.20;52.00;;;;;;5018802;28;82909;-55
2023/10/08 00:56:57;;;;;;;;;;;16.20;52.00;;;;;;5017228;28;81329;-48
2023/10/08 00:59:23;;;;;;;;;;;16.20;52.00;;;;;;5016932;28;82495;-48
2023/10/08 01:02:14;;;;;;;;;;;16.20;52.00;;;;;;5013874;28;85280;-52
2023/10/08 01:04:39;;;;;;;;;;;16.20;52.00;;;;;;5017207;28;83091;-51
2023/10/08 01:07:15;;;;;;;;;;;16.10;52.00;;;;;;5014281;28;83786;-45
2023/10/08 01:09:42;;;;;;;;;;;16.20;52.10;;;;;;5015498;28;83638;-51
2023/10/08 01:12:13;;;;;;;;;;;16.10;52.00;;;;;;5020860;28;82058;-51
2023/10/08 01:14:42;;;;;;;;;;;16.10;52.00;;;;;;5013918;28;84567;-48
2023/10/08 01:17:16;;;;;;;;;;;16.10;52.00;;;;;;5014015;28;82063;-51
2023/10/08 01:19:56;;;;;;;;;;;16.10;52.00;;;;;;5015954;28;83900;-49
2023/10/08 01:22:22;;;;;;;;;;;16.00;52.10;;;;;;5012431;28;82755;-51
2023/10/08 01:24:51;;;;;;;;;;;16.00;52.00;;;;;;5016919;28;82084;-49
2023/10/08 01:27:24;;;;;;;;;;;16.00;52.00;;;;;;5016477;28;84373;-49
2023/10/08 01:29:50;;;;;;;;;;;16.00;52.10;;;;;;5011096;28;85572;-48
2023/10/08 01:32:16;;;;;;;;;;;16.00;52.10;;;;;;5015391;28;82101;-47
2023/10/08 01:34:45;;;;;;;;;;;16.00;52.10;;;;;;5017041;28;83015;-51
2023/10/08 01:37:17;;;;;;;;;;;16.00;52.10;;;;;;5016519;28;82131;-47
2023/10/08 01:39:46;;;;;;;;;;;15.90;52.00;;;;;;5009979;28;82505;-51
2023/10/08 01:42:17;;;;;;;;;;;15.90;52.10;;;;;;5011920;28;83358;-48
2023/10/08 01:44:46;;;;;;;;;;;15.90;52.00;;;;;;5015262;28;82126;-49
2023/10/08 01:47:12;;;;;;;;;;;15.90;52.00;;;;;;5016333;28;84239;-50
2023/10/08 01:49:39;;;;;;;;;;;16.00;52.00;;;;;;5014244;28;85185;-46
2023/10/08 01:52:07;;;;;;;;;;;15.90;52.10;;;;;;5016000;28;82815;-52
2023/10/08 01:54:35;;;;;;;;;;;15.90;52.10;;;;;;5014824;28;83674;-52
2023/10/08 01:57:01;;;;;;;;;;;15.90;52.10;;;;;;5014704;28;82066;-53
2023/10/08 01:59:26;;;;;;;;;;;15.90;52.00;;;;;;5016874;28;82399;-48
2023/10/08 02:01:55;;;;;;;;;;;15.90;52.00;;;;;;5012644;28;83108;-50
2023/10/08 02:04:21;;;;;;;;;;;15.90;51.90;;;;;;5013855;28;82329;-48
2023/10/08 02:06:47;;;;;;;;;;;15.90;51.90;;;;;;5015987;28;83949;-49
2023/10/08 02:09:13;;;;;;;;;;;15.90;51.90;;;;;;5013744;28;83469;-52
2023/10/08 02:11:50;;;;;;;;;;;15.80;51.90;;;;;;5016474;28;81327;-51
2023/10/08 02:14:16;;;;;;;;;;;15.80;51.90;;;;;;5011968;28;81958;-56
2023/10/08 02:16:42;;;;;;;;;;;15.80;51.90;;;;;;5017524;28;84902;-49
2023/10/08 02:19:10;;;;;;;;;;;15.80;51.90;;;;;;5015180;28;83245;-50
2023/10/08 02:21:37;;;;;;;;;;;15.80;51.90;;;;;;5016743;28;84340;-50
2023/10/08 02:24:03;;;;;;;;;;;15.70;51.90;;;;;;5013362;28;82125;-51
2023/10/08 02:26:29;;;;;;;;;;;15.70;51.90;;;;;;5014538;28;82959;-48
2023/10/08 02:28:54;;;;;;;;;;;15.70;51.90;;;;;;5017049;28;83177;-53
2023/10/08 02:31:20;;;;;;;;;;;15.70;51.90;;;;;;5015783;28;82117;-48
2023/10/08 02:33:45;;;;;;;;;;;15.70;51.90;;;;;;5014412;28;83813;-48
2023/10/08 02:36:13;;;;;;;;;;;15.70;51.90;;;;;;5016061;28;82616;-47
2023/10/08 02:38:39;;;;;;;;;;;15.70;51.90;;;;;;5016984;28;81961;-48
2023/10/08 02:41:07;;;;;;;;;;;15.60;51.90;;;;;;5014372;28;83324;-50
2023/10/08 02:43:42;;;;;;;;;;;15.70;51.90;;;;;;5014974;28;83050;-49
2023/10/08 02:46:10;;;;;;;;;;;15.60;51.80;;;;;;5013991;28;85147;-49
2023/10/08 02:48:36;;;;;;;;;;;15.60;51.80;;;;;;5014016;28;83408;-48
2023/10/08 02:51:07;;;;;;;;;;;15.60;52.00;;;;;;5011851;28;82186;-53
2023/10/08 02:53:33;;;;;;;;;;;15.60;51.90;;;;;;5013569;28;83905;-52
2023/10/08 02:55:59;;;;;;;;;;;15.60;51.90;;;;;;5015183;28;83447;-49
2023/10/08 02:58:27;;;;;;;;;;;15.50;51.80;;;;;;5015832;28;82167;-49
2023/10/08 03:00:53;;;;;;;;;;;15.50;51.90;;;;;;5015763;28;82924;-53
2023/10/08 03:03:19;;;;;;;;;;;15.50;51.90;;;;;;5016835;28;82149;-47
2023/10/08 03:05:46;;;;;;;;;;;15.50;51.90;;;;;;5013777;28;82579;-51
2023/10/08 03:08:12;;;;;;;;;;;15.50;51.90;;;;;;5014858;28;84370;-46
2023/10/08 03:10:38;;;;;;;;;;;15.50;51.90;;;;;;5015839;28;81935;-46
2023/10/08 03:13:09;;;;;;;;;;;15.50;51.80;;;;;;5013735;28;83220;-48
2023/10/08 03:16:09;;;;;;;;;;;15.50;51.80;;;;;;5015773;28;83464;-49
2023/10/08 03:18:35;;;;;;;;;;;15.40;51.80;;;;;;5009506;28;81946;-45
2023/10/08 03:21:05;;;;;;;;;;;15.40;51.90;;;;;;5015199;28;84267;-48
2023/10/08 03:23:34;;;;;;;;;;;15.40;51.80;;;;;;5019077;28;83161;-50
2023/10/08 03:26:09;;;;;;;;;;;15.40;51.90;;;;;;5009065;28;83032;-47
2023/10/08 03:28:34;;;;;;;;;;;15.40;51.90;;;;;;5013531;28;84341;-48
2023/10/08 03:31:04;;;;;;;;;;;15.40;51.90;;;;;;5014413;28;82075;-50
2023/10/08 03:33:34;;;;;;;;;;;15.30;51.90;;;;;;5014849;28;86019;-47
2023/10/08 03:36:04;;;;;;;;;;;15.30;51.90;;;;;;5010451;28;84474;-51
2023/10/08 03:41:30;;;;;;;;;;;15.30;51.90;;;;;;5008009;28;83455;-48
2023/10/08 03:44:05;;;;;;;;;;;15.30;51.80;;;;;;5013050;28;84342;-48
2023/10/08 03:46:31;;;;;;;;;;;15.30;51.90;;;;;;5017906;28;81951;-49
2023/10/08 03:49:04;;;;;;;;;;;15.20;51.80;;;;;;5015364;28;84822;-49
2023/10/08 03:51:29;;;;;;;;;;;15.20;51.80;;;;;;5013503;28;81310;-47
2023/10/08 03:54:15;;;;;;;;;;;15.20;51.90;;;;;;5010629;28;82961;-50
2023/10/08 03:56:48;;;;;;;;;;;15.20;51.80;;;;;;5015284;28;83233;-52
2023/10/08 03:59:31;;;;;;;;;;;15.20;51.80;;;;;;5013767;28;83002;-50
2023/10/08 04:02:01;;;;;;;;;;;15.20;51.80;;;;;;5009718;28;82699;-50
2023/10/08 04:04:48;;;;;;;;;;;15.10;51.80;;;;;;5014821;28;84659;-48
2023/10/08 04:12:52;;;;;;;;;;;15.10;51.80;;;;;;5006303;28;82131;-52
2023/10/08 04:15:19;;;;;;;;;;;15.10;51.70;;;;;;5018554;28;81985;-49
2023/10/08 04:17:45;;;;;;;;;;;15.10;51.70;;;;;;5018591;28;83552;-54
2023/10/08 04:23:01;;;;;;;;;;;15.10;51.80;;;;;;5016756;28;82742;-51
2023/10/08 04:25:27;;;;;;;;;;;15.00;51.70;;;;;;5015107;28;85612;-55
2023/10/08 04:27:54;;;;;;;;;;;15.00;51.80;;;;;;5012480;28;82118;-54
2023/10/08 04:30:22;;;;;;;;;;;15.00;51.70;;;;;;5018248;28;82151;-49
2023/10/08 04:32:52;;;;;;;;;;;15.00;51.80;;;;;;5018157;28;82141;-54
2023/10/08 04:35:19;;;;;;;;;;;15.00;51.90;;;;;;5009939;28;82074;-51
2023/10/08 04:37:51;;;;;;;;;;;15.00;51.80;;;;;;5016922;28;83147;-50
2023/10/08 04:40:16;;;;;;;;;;;14.90;51.70;;;;;;5010310;28;82047;-48
2023/10/08 04:42:45;;;;;;;;;;;14.90;51.70;;;;;;5017664;28;82546;-54
2023/10/08 04:45:13;;;;;;;;;;;14.90;51.70;;;;;;5015876;28;84459;-51
2023/10/08 04:47:44;;;;;;;;;;;14.90;51.70;;;;;;5013242;28;82156;-54
2023/10/08 04:50:16;;;;;;;;;;;14.90;51.70;;;;;;5014252;28;82952;-49
2023/10/08 04:52:58;;;;;;;;;;;14.90;51.70;;;;;;5020438;28;83174;-51
2023/10/08 04:55:28;;;;;;;;;;;14.90;51.70;;;;;;5004965;28;83070;-50
2023/10/08 04:57:55;;;;;;;;;;;14.90;51.80;;;;;;5009701;28;84733;-52
2023/10/08 05:00:41;;;;;;;;;;;14.80;51.70;;;;;;5018278;28;82118;-51
2023/10/08 05:03:16;;;;;;;;;;;14.90;52.40;;;;;;5006362;28;85376;-51
2023/10/08 05:08:32;;;;;;;;;;;14.80;51.70;;;;;;5014061;28;81308;-54
2023/10/08 05:11:15;;;;;;;;;;;14.80;51.70;;;;;;5013152;28;81983;-48
2023/10/08 05:13:55;;;;;;;;;;;14.80;51.80;;;;;;5005359;28;84552;-49
2023/10/08 05:16:36;;;;;;;;;;;14.80;51.80;;;;;;5013668;28;83057;-51
2023/10/08 05:19:26;;;;;;;;;;;14.80;51.80;;;;;;5013484;28;83112;-49
2023/10/08 05:22:01;;;;;;;;;;;14.70;51.80;;;;;;5012227;28;82280;-48
2023/10/08 05:24:37;;;;;;;;;;;14.70;51.80;;;;;;5004649;28;84255;-45
2023/10/08 05:27:37;;;;;;;;;;;14.70;51.80;;;;;;5013205;28;83209;-53
2023/10/08 05:30:17;;;;;;;;;;;14.70;51.80;;;;;;5013858;28;82047;-48
2023/10/08 05:33:05;;;;;;;;;;;14.70;51.70;;;;;;5005612;28;84110;-53
2023/10/08 05:46:39;;;;;;;;;;;14.60;51.80;;;;;;5013285;28;83359;-50
2023/10/08 05:54:35;;;;;;;;;;;14.60;51.70;;;;;;5011496;28;82304;-50
2023/10/08 05:57:14;;;;;;;;;;;14.60;51.90;;;;;;5013054;28;82578;-55
2023/10/08 06:02:27;;;;;;;;;;;14.60;51.80;;;;;;5006708;28;82333;-51
2023/10/08 06:18:29;;;;;;;;;;;14.50;51.90;;;;;;5001820;28;82815;-52
2023/10/08 06:20:55;;;;;;;;;;;14.50;52.00;;;;;;5008307;28;82297;-55
2023/10/08 06:23:23;;;;;;;;;;;14.50;51.90;;;;;;5016136;28;82198;-52
2023/10/08 06:25:54;;;;;;;;;;;14.50;51.90;;;;;;5017527;28;84486;-48
2023/10/08 06:28:20;;;;;;;;;;;14.50;51.90;;;;;;5005583;28;81937;-52
2023/10/08 06:30:49;;;;;;;;;;;14.50;52.10;;;;;;5012130;28;82231;-53
2023/10/08 06:33:16;;;;;;;;;;;14.50;52.00;;;;;;5015002;28;83348;-52
2023/10/08 06:35:44;;;;;;;;;;;14.50;52.20;;;;;;5012635;28;83723;-53
2023/10/08 06:38:10;;;;;;;;;;;14.50;52.10;;;;;;5008461;28;82860;-55
2023/10/08 06:43:14;;;;;;;;;;;14.50;52.20;;;;;;5014119;28;82783;-52
2023/10/08 06:45:40;;;;;;;;;;;14.50;52.20;;;;;;5011282;28;82236;-54
2023/10/08 06:48:06;;;;;;;;;;;14.50;52.10;;;;;;5008481;28;82505;-47
2023/10/08 06:50:37;;;;;;;;;;;14.50;52.10;;;;;;5014000;28;82325;-48
2023/10/08 06:53:07;;;;;;;;;;;14.50;52.20;;;;;;5015327;28;81246;-52
2023/10/08 06:55:36;;;;;;;;;;;14.50;52.10;;;;;;5009894;28;83228;-54
2023/10/08 06:58:05;;;;;;;;;;;14.50;52.20;;;;;;5006448;28;83153;-52
2023/10/08 07:00:46;;;;;;;;;;;14.50;52.20;;;;;;5008629;28;83037;-50
2023/10/08 07:03:15;;;;;;;;;;;14.40;52.10;;;;;;5008847;28;84844;-49
2023/10/08 07:05:41;;;;;;;;;;;14.50;52.30;;;;;;5004198;28;84803;-51
2023/10/08 07:08:12;;;;;;;;;;;14.50;52.30;;;;;;5007277;28;82005;-53
2023/10/08 07:10:39;;;;;;;;;;;14.50;52.30;;;;;;5017292;28;82648;-54
2023/10/08 07:13:07;;;;;;;;;;;14.40;52.20;;;;;;5012144;28;82157;-50
2023/10/08 07:15:43;;;;;;;;;;;14.40;52.30;;;;;;5005801;28;82254;-54
2023/10/08 07:18:12;;;;;;;;;;;14.50;52.30;;;;;;5012847;28;84245;-52
2023/10/08 07:20:39;;;;;;;;;;;14.50;52.30;;;;;;5016024;28;81975;-54
2023/10/08 07:23:24;;;;;;;;;;;14.40;52.30;;;;;;5005837;28;82833;-55
2023/10/08 07:26:10;;;;;;;;;;;14.40;52.40;;;;;;5002397;28;84659;-52
2023/10/08 07:28:37;;;;;;;;;;;14.50;52.40;;;;;;5013319;28;81981;-56
2023/10/08 07:31:02;;;;;;;;;;;14.40;52.40;;;;;;5013013;28;82588;-55
2023/10/08 07:33:36;;;;;;;;;;;14.40;52.40;;;;;;5015650;28;83623;-55
2023/10/08 07:36:11;;;;;;;;;;;14.40;52.40;;;;;;5009538;28;84047;-51
2023/10/08 07:38:43;;;;;;;;;;;14.50;52.50;;;;;;5013779;28;84537;-54
2023/10/08 07:41:14;;;;;;;;;;;14.40;52.50;;;;;;5008557;28;83141;-49
2023/10/08 07:43:41;;;;;;;;;;;14.40;52.60;;;;;;5002206;28;83000;-53
2023/10/08 07:46:09;;;;;;;;;;;14.40;52.80;;;;;;5013597;28;83127;-53
2023/10/08 07:48:34;;;;;;;;;;;14.40;52.70;;;;;;5019476;28;82603;-54
2023/10/08 07:51:00;;;;;;;;;;;14.40;52.80;;;;;;5007018;28;84786;-50
2023/10/08 07:53:37;;;;;;;;;;;14.40;52.70;;;;;;5012939;28;82531;-53
2023/10/08 07:56:08;;;;;;;;;;;14.40;52.60;;;;;;5020857;28;82055;-52
2023/10/08 07:58:37;;;;;;;;;;;14.40;52.80;;;;;;5016609;28;85033;-53
2023/10/08 08:01:06;;;;;;;;;;;14.40;52.80;;;;;;5004457;28;83415;-49
2023/10/08 08:03:31;;;;;;;;;;;14.40;52.80;;;;;;5010365;28;82058;-52
2023/10/08 08:05:58;;;;;;;;;;;14.40;52.80;;;;;;5018392;28;83165;-49
2023/10/08 08:08:27;;;;;;;;;;;14.40;52.80;;;;;;5014815;28;81249;-52
2023/10/08 08:10:57;;;;;;;;;;;14.40;52.80;;;;;;5005746;28;82984;-51
2023/10/08 08:13:27;;;;;;;;;;;14.30;52.90;;;;;;5014762;28;84772;-49
2023/10/08 08:15:58;;;;;;;;;;;14.30;53.10;;;;;;5020627;28;83000;-51
2023/10/08 08:18:32;;;;;;;;;;;14.30;53.20;;;;;;5016254;28;83186;-53
2023/10/08 08:21:01;;;;;;;;;;;14.30;53.10;;;;;;5008285;28;82121;-51
2023/10/08 08:23:31;;;;;;;;;;;14.30;53.10;;;;;;5018120;28;82705;-52
2023/10/08 08:28:28;;;;;;;;;;;14.30;53.20;;;;;;5002275;28;82803;-54
2023/10/08 08:30:55;;;;;;;;;;;14.30;53.20;;;;;;5008819;28;83129;-49
2023/10/08 08:33:24;;;;;;;;;;;14.30;53.20;;;;;;5017694;28;81922;-55
2023/10/08 08:36:00;;;;;;;;;;;14.30;53.30;;;;;;5008233;28;82228;-52
2023/10/08 08:38:27;;;;;;;;;;;14.30;53.30;;;;;;5010052;28;84060;-53
2023/10/08 08:41:06;;;;;;;;;;;14.30;53.30;;;;;;5015437;28;82898;-53
2023/10/08 08:43:33;;;;;;;;;;;14.30;53.40;;;;;;5013054;28;83571;-51
2023/10/08 08:45:59;;;;;;;;;;;14.30;53.30;;;;;;5010992;28;83146;-53
2023/10/08 08:48:26;;;;;;;;;;;14.30;53.50;;;;;;5009934;28;82123;-52
2023/10/08 08:50:52;;;;;;;;;;;14.30;53.50;;;;;;5015192;28;83907;-49
2023/10/08 08:53:19;;;;;;;;;;;14.30;53.40;;;;;;5018336;28;83552;-54
2023/10/08 08:55:46;;;;;;;;;;;14.30;53.60;;;;;;5006197;28;82565;-52
2023/10/08 08:58:12;;;;;;;;;;;14.40;53.50;;;;;;5013335;28;82523;-54
2023/10/08 09:00:38;;;;;;;;;;;14.40;53.50;;;;;;5017193;28;83426;-50
2023/10/08 09:03:06;;;;;;;;;;;14.40;53.40;;;;;;5016299;28;83863;-49
2023/10/08 09:05:35;;;;;;;;;;;14.40;53.40;;;;;;5007851;28;84644;-49
2023/10/08 09:08:07;;;;;;;;;;;14.40;53.40;;;;;;5003654;28;82334;-54
2023/10/08 09:10:51;;;;;;;;;;;14.40;53.50;;;;;;5014041;28;82693;-56
2023/10/08 09:13:20;;;;;;;;;;;14.40;53.60;;;;;;5011111;28;83661;-53
2023/10/08 09:15:46;;;;;;;;;;;14.30;53.60;;;;;;5005631;28;82250;-49
2023/10/08 09:18:14;;;;;;;;;;;14.40;53.60;;;;;;5008524;28;83976;-50
2023/10/08 09:20:43;;;;;;;;;;;14.40;53.80;;;;;;5017230;28;82704;-49
2023/10/08 09:23:13;;;;;;;;;;;14.40;53.70;;;;;;5017970;28;82640;-53
2023/10/08 09:25:42;;;;;;;;;;;14.40;53.60;;;;;;5002003;28;84615;-50
2023/10/08 09:28:08;;;;;;;;;;;14.40;53.60;;;;;;5014175;28;82064;-48
2023/10/08 09:30:37;;;;;;;;;;;14.40;53.70;;;;;;5015268;28;83053;-50
2023/10/08 09:33:08;;;;;;;;;;;14.40;53.70;;;;;;5010523;28;84610;-54
2023/10/08 09:35:34;;;;;;;;;;;14.50;53.80;;;;;;5004457;28;82998;-49
2023/10/08 09:38:03;;;;;;;;;;;14.50;53.80;;;;;;5015914;28;82704;-53
2023/10/08 09:40:29;;;;;;;;;;;14.50;53.80;;;;;;5016600;28;83473;-55
2023/10/08 09:42:55;;;;;;;;;;;14.50;53.80;;;;;;5010438;28;82334;-51
2023/10/08 09:45:20;;;;;;;;;;;14.50;53.80;;;;;;5010899;28;82666;-54
2023/10/08 09:47:55;;;;;;;;;;;14.50;53.90;;;;;;5018563;28;81354;-53
2023/10/08 09:50:24;;;;;;;;;;;14.50;53.80;;;;;;5015696;28;82207;-52
2023/10/08 09:52:56;;;;;;;;;;;14.50;53.80;;;;;;5006972;28;83118;-51
2023/10/08 09:55:22;;;;;;;;;;;14.50;54.00;;;;;;5008327;28;83002;-47
2023/10/08 09:57:50;;;;;;;;;;;14.50;54.00;;;;;;5016569;28;83446;-51
2023/10/08 10:00:18;;;;;;;;;;;14.60;53.80;;;;;;5008008;28;84212;-47
2023/10/08 10:02:45;;;;;;;;;;;14.60;53.70;;;;;;5012372;28;84200;-54
2023/10/08 10:05:21;;;;;;;;;;;14.50;53.80;;;;;;5015670;28;83032;-49
2023/10/08 10:07:49;;;;;;;;;;;14.60;53.80;;;;;;5013459;28;84230;-52
2023/10/08 10:10:26;;;;;;;;;;;14.60;54.00;;;;;;5008932;28;82472;-54
2023/10/08 10:12:51;;;;;;;;;;;14.60;53.60;;;;;;5008482;28;82429;-54
2023/10/08 10:15:19;;;;;;;;;;;14.60;53.80;;;;;;5016282;28;82065;-52
2023/10/08 10:17:47;;;;;;;;;;;14.70;53.90;;;;;;5012638;28;82758;-52
2023/10/08 10:20:13;;;;;;;;;;;14.70;53.90;;;;;;5003635;28;85542;-52
2023/10/08 10:22:42;;;;;;;;;;;14.70;53.80;;;;;;5010815;28;82114;-55
2023/10/08 10:25:20;;;;;;;;;;;14.70;53.80;;;;;;5010547;28;84261;-50
2023/10/08 10:27:55;;;;;;;;;;;14.70;53.80;;;;;;5017850;28;82225;-51
2023/10/08 10:30:22;;;;;;;;;;;14.70;54.00;;;;;;5004224;28;84149;-54
2023/10/08 10:32:51;;;;;;;;;;;14.70;54.00;;;;;;5012799;28;83126;-48
2023/10/08 10:35:19;;;;;;;;;;;14.70;54.00;;;;;;5015271;28;82043;-55
2023/10/08 10:37:51;;;;;;;;;;;14.70;54.00;;;;;;5009839;28;82871;-51
2023/10/08 10:40:29;;;;;;;;;;;14.80;54.00;;;;;;5004637;28;84601;-48
2023/10/08 10:42:57;;;;;;;;;;;14.80;53.90;;;;;;5013200;28;82034;-48
2023/10/08 10:45:36;;;;;;;;;;;14.80;53.90;;;;;;5016082;28;83045;-54
2023/10/08 10:53:31;;;;;;;;;;;14.80;53.80;;;;;;5007721;28;83240;-49
2023/10/08 10:55:59;;;;;;;;;;;14.90;53.60;;;;;;5009741;28;83772;-57
2023/10/08 10:58:26;;;;;;;;;;;14.90;53.60;;;;;;5007827;28;83993;-51
2023/10/08 11:00:59;;;;;;;;;;;14.90;53.50;;;;;;5008341;28;83148;-52
2023/10/08 11:03:24;;;;;;;;;;;14.90;53.60;;;;;;5010895;28;81206;-48
2023/10/08 11:05:59;;;;;;;;;;;14.90;53.80;;;;;;5012306;28;82632;-51
2023/10/08 11:08:25;;;;;;;;;;;14.90;53.70;;;;;;5004466;28;84258;-54
2023/10/08 11:10:53;;;;;;;;;;;15.00;53.70;;;;;;5016328;28;82984;-50
2023/10/08 11:13:20;;;;;;;;;;;15.00;54.00;;;;;;5013144;28;84707;-51
2023/10/08 11:15:49;;;;;;;;;;;15.00;53.70;;;;;;5005966;28;82293;-51
2023/10/08 11:18:16;;;;;;;;;;;15.00;53.70;;;;;;5007585;28;82582;-54
2023/10/08 11:20:44;;;;;;;;;;;15.00;53.80;;;;;;5017510;28;83064;-53
2023/10/08 11:23:19;;;;;;;;;;;15.00;53.80;;;;;;5015340;28;82361;-51
2023/10/08 11:26:02;;;;;;;;;;;15.10;53.80;;;;;;5007040;28;82011;-51
2023/10/08 11:28:28;;;;;;;;;;;15.10;53.70;;;;;;5014636;28;84075;-53
2023/10/08 11:30:54;;;;;;;;;;;15.10;53.70;;;;;;5018433;28;81998;-50
2023/10/08 11:33:19;;;;;;;;;;;15.10;53.70;;;;;;5009750;28;82535;-50
2023/10/08 11:36:00;;;;;;;;;;;15.20;53.90;;;;;;5015350;28;83213;-51
2023/10/08 11:38:27;;;;;;;;;;;15.20;53.80;;;;;;5015174;28;82808;-54
2023/10/08 11:40:58;;;;;;;;;;;15.20;53.80;;;;;;5019534;28;82621;-48
2023/10/08 11:43:24;;;;;;;;;;;15.20;53.90;;;;;;5006242;28;82091;-57
2023/10/08 11:45:49;;;;;;;;;;;15.30;53.90;;;;;;5013250;28;84231;-53
2023/10/08 11:48:38;;;;;;;;;;;15.30;53.80;;;;;;5019929;28;83154;-55
2023/10/08 11:51:05;;;;;;;;;;;15.30;53.80;;;;;;5013797;28;82156;-53
2023/10/08 11:53:31;;;;;;;;;;;15.30;54.40;;;;;;5007894;28;81790;-55
2023/10/08 11:55:57;;;;;;;;;;;15.30;54.00;;;;;;5016212;28;83704;-50
2023/10/08 11:58:37;;;;;;;;;;;15.30;53.80;;;;;;5021099;28;82048;-55
2023/10/08 12:01:03;;;;;;;;;;;15.40;53.80;;;;;;5009827;28;84191;-52
2023/10/08 12:03:29;;;;;;;;;;;15.40;54.20;;;;;;5016726;28;82077;-51
2023/10/08 12:05:59;;;;;;;;;;;15.40;54.00;;;;;;5015954;28;82781;-53
2023/10/08 12:08:27;;;;;;;;;;;15.40;54.30;;;;;;5016828;28;83057;-50
2023/10/08 12:10:54;;;;;;;;;;;15.40;54.40;;;;;;5008170;28;82193;-53
2023/10/08 12:13:24;;;;;;;;;;;15.40;54.50;;;;;;5013338;28;84356;-49
2023/10/08 12:16:06;;;;;;;;;;;15.50;54.40;;;;;;5017708;28;84001;-53
2023/10/08 12:18:43;;;;;;;;;;;15.50;54.60;;;;;;5013295;28;81482;-53
2023/10/08 12:21:15;;;;;;;;;;;15.50;54.40;;;;;;5012917;28;82529;-51
2023/10/08 12:23:43;;;;;;;;;;;15.50;54.30;;;;;;5015930;28;82101;-50
2023/10/08 12:26:09;;;;;;;;;;;15.60;54.50;;;;;;5019264;28;84517;-53
2023/10/08 12:28:36;;;;;;;;;;;15.60;54.40;;;;;;5012830;28;84873;-51
2023/10/08 12:31:03;;;;;;;;;;;15.60;54.50;;;;;;5009523;28;82180;-52
2023/10/08 12:33:29;;;;;;;;;;;15.60;54.60;;;;;;5017785;28;83316;-53
2023/10/08 12:35:55;;;;;;;;;;;15.60;54.60;;;;;;5014439;28;83336;-53
2023/10/08 12:38:27;;;;;;;;;;;15.70;54.70;;;;;;5012532;28;82108;-55
2023/10/08 12:40:53;;;;;;;;;;;15.70;54.60;;;;;;5016188;28;83887;-50
2023/10/08 12:43:19;;;;;;;;;;;15.70;54.60;;;;;;5018394;28;81333;-53
2023/10/08 12:45:56;;;;;;;;;;;15.70;54.60;;;;;;5010812;28;82188;-52
2023/10/08 12:48:26;;;;;;;;;;;15.70;54.50;;;;;;5001323;28;84262;-49
2023/10/08 12:50:57;;;;;;;;;;;15.70;54.50;;;;;;5014296;28;83236;-55
2023/10/08 12:53:39;;;;;;;;;;;15.80;55.10;;;;;;5019073;28;84694;-51
2023/10/08 12:56:05;;;;;;;;;;;15.80;54.60;;;;;;5009479;28;83399;-54
2023/10/08 12:58:34;;;;;;;;;;;15.80;54.40;;;;;;5009698;28;82160;-54
2023/10/08 13:01:03;;;;;;;;;;;15.90;54.50;;;;;;5011843;28;83031;-55
2023/10/08 13:03:32;;;;;;;;;;;15.80;54.40;;;;;;5018396;28;83454;-54
2023/10/08 13:06:11;;;;;;;;;;;15.90;54.50;;;;;;5006872;28;83794;-51
2023/10/08 13:08:37;;;;;;;;;;;15.90;54.40;;;;;;5007254;28;82303;-53
2023/10/08 13:11:03;;;;;;;;;;;15.90;54.30;;;;;;5016416;28;82104;-55
2023/10/08 13:13:36;;;;;;;;;;;16.00;54.20;;;;;;5017890;28;84019;-55
2023/10/08 13:16:07;;;;;;;;;;;16.00;54.40;;;;;;5008100;28;84641;-53
2023/10/08 13:18:33;;;;;;;;;;;16.00;54.20;;;;;;5004152;28;83956;-51
2023/10/08 13:20:59;;;;;;;;;;;16.00;54.50;;;;;;5016391;28;82414;-55
2023/10/08 13:23:24;;;;;;;;;;;16.00;54.30;;;;;;5014371;28;82990;-55
2023/10/08 13:25:59;;;;;;;;;;;16.10;54.40;;;;;;5016154;28;82106;-53
2023/10/08 13:28:26;;;;;;;;;;;16.10;54.50;;;;;;5008805;28;84608;-51
2023/10/08 13:30:53;;;;;;;;;;;16.10;54.30;;;;;;5017530;28;82112;-52
2023/10/08 13:33:24;;;;;;;;;;;16.10;54.40;;;;;;5014559;28;82545;-51
2023/10/08 13:35:50;;;;;;;;;;;16.10;54.50;;;;;;5009445;28;83317;-55
2023/10/08 13:38:19;;;;;;;;;;;16.20;54.40;;;;;;5014636;28;82138;-54
2023/10/08 13:41:03;;;;;;;;;;;16.20;54.40;;;;;;5011425;28;84078;-53
2023/10/08 13:43:39;;;;;;;;;;;16.20;54.30;;;;;;5006844;28;83084;-50
2023/10/08 13:46:06;;;;;;;;;;;16.20;54.90;;;;;;5008007;28;82024;-53
2023/10/08 13:48:32;;;;;;;;;;;16.30;54.30;;;;;;5019825;28;82783;-51
2023/10/08 13:50:59;;;;;;;;;;;16.30;54.50;;;;;;5014464;28;82102;-56
2023/10/08 13:53:29;;;;;;;;;;;16.30;54.30;;;;;;5007341;28;84192;-58
2023/10/08 13:55:56;;;;;;;;;;;16.30;54.40;;;;;;5007626;28;85028;-52
2023/10/08 13:58:22;;;;;;;;;;;16.30;54.30;;;;;;5017165;28;81406;-50
2023/10/08 14:00:50;;;;;;;;;;;16.30;54.30;;;;;;5016359;28;83187;-51
2023/10/08 14:03:21;;;;;;;;;;;16.30;54.20;;;;;;5007821;28;85390;-55
2023/10/08 14:05:50;;;;;;;;;;;16.40;54.30;;;;;;5010292;28;83061;-51
2023/10/08 14:08:17;;;;;;;;;;;16.40;54.30;;;;;;5015630;28;83874;-53
2023/10/08 14:10:43;;;;;;;;;;;16.40;54.30;;;;;;5013602;28;82401;-52
2023/10/08 14:13:08;;;;;;;;;;;16.50;53.50;;;;;;5009455;28;82660;-48
2023/10/08 14:15:42;;;;;;;;;;;16.60;52.60;;;;;;5013283;28;82254;-51
2023/10/08 14:18:08;;;;;;;;;;;16.70;52.10;;;;;;5012031;28;81870;-48
2023/10/08 14:20:34;;;;;;;;;;;16.80;52.10;;;;;;5010190;28;82975;-50
2023/10/08 14:23:02;;;;;;;;;;;16.90;51.60;;;;;;5004129;28;82545;-54
2023/10/08 14:25:33;;;;;;;;;;;16.90;51.40;;;;;;5016873;28;82541;-45
2023/10/08 14:28:04;;;;;;;;;;;17.00;51.50;;;;;;5010290;28;83865;-53
2023/10/08 14:30:31;;;;;;;;;;;17.00;51.80;;;;;;5005424;28;84828;-52
2023/10/08 14:32:58;;;;;;;;;;;17.10;51.40;;;;;;5010609;28;82295;-52
2023/10/08 14:43:37;;;;;;;;;;;17.30;51.30;;;;;;5011034;28;82460;-53
2023/10/08 14:46:05;;;;;;;;;;;17.40;50.90;;;;;;5014054;28;82107;-51
2023/10/08 14:48:34;;;;;;;;;;;17.40;51.10;;;;;;5005464;28;84462;-51
2023/10/08 14:51:06;;;;;;;;;;;17.30;50.50;;;;;;5013074;28;84408;-50
2023/10/08 14:53:33;;;;;;;;;;;17.30;50.60;;;;;;5013601;28;82050;-51
2023/10/08 14:56:03;;;;;;;;;;;17.30;50.70;;;;;;5012001;28;85526;-53
2023/10/08 14:58:29;;;;;;;;;;;17.20;51.20;;;;;;5007109;28;82112;-48
2023/10/08 15:00:55;;;;;;;;;;;17.30;51.10;;;;;;5009490;28;84787;-51
2023/10/08 15:03:20;;;;;;;;;;;17.30;50.80;;;;;;5012996;28;83114;-56
2023/10/08 15:05:49;;;;;;;;;;;17.40;51.00;;;;;;5015211;28;82273;-50
2023/10/08 15:08:15;;;;;;;;;;;17.40;51.10;;;;;;5006311;28;83015;-47
2023/10/08 15:10:40;;;;;;;;;;;17.40;51.30;;;;;;5008980;28;83530;-49
2023/10/08 15:13:06;;;;;;;;;;;17.40;51.40;;;;;;5014668;28;81860;-51
2023/10/08 15:15:34;;;;;;;;;;;17.40;51.50;;;;;;5013700;28;82835;-51
2023/10/08 15:18:02;;;;;;;;;;;17.40;51.60;;;;;;5009176;28;83962;-52
2023/10/08 15:20:30;;;;;;;;;;;17.40;51.70;;;;;;5013397;28;83352;-50
2023/10/08 15:22:56;;;;;;;;;;;17.40;51.60;;;;;;5016613;28;84252;-49
2023/10/08 15:25:22;;;;;;;;;;;17.40;51.80;;;;;;5007884;28;82156;-52
2023/10/08 15:27:48;;;;;;;;;;;17.30;51.80;;;;;;5009612;28;83278;-54
2023/10/08 15:30:16;;;;;;;;;;;17.30;51.80;;;;;;5016403;28;82598;-53
2023/10/08 15:32:46;;;;;;;;;;;17.40;52.10;;;;;;5008743;28;82714;-49
2023/10/08 15:35:14;;;;;;;;;;;17.30;52.00;;;;;;5010051;28;82482;-47
2023/10/08 15:37:42;;;;;;;;;;;17.30;52.80;;;;;;5009251;28;82412;-49
2023/10/08 15:40:08;;;;;;;;;;;17.30;52.20;;;;;;5016440;28;82391;-54
2023/10/08 15:42:37;;;;;;;;;;;17.30;52.90;;;;;;5012421;28;84961;-52